sensor_id;sensor_type;location;lat;lon;timestamp;pressure;altitude;pressure_sealevel;temperature;humidity
4410;BME280;2218;51.408;7.208;2023-09-08T00:00:48;100011.44;;;24.98;54.15
4410;BME280;2218;51.408;7.208;2023-09-08T00:03:15;100005.28;;;24.97;54.08
4410;BME280;2218;51.408;7.208;2023-09-08T00:05:42;100005.28;;;24.97;54.37
4410;BME280;2218;51.408;7.208;2023-09-08T00:08:10;100000.06;;;24.96;54.16
4410;BME280;2218;51.408;7.208;2023-09-08T00:10:37;99997.28;;;24.97;54.21
4410;BME280;2218;51.408;7.208;2023-09-08T00:13:04;100000.94;;;24.96;54.22
4410;BME280;2218;51.408;7.208;2023-09-08T00:15:34;99995.63;;;24.96;54.31
4410;BME280;2218;51.408;7.208;2023-09-08T00:18:01;99992.09;;;24.96;54.13
4410;BME280;2218;51.408;7.208;2023-09-08T00:20:28;99998.28;;;24.96;54.25
4410;BME280;2218;51.408;7.208;2023-09-08T00:22:55;99999.22;;;24.95;54.17
4410;BME280;2218;51.408;7.208;2023-09-08T00:25:23;99995.63;;;24.96;54.11
4410;BME280;2218;51.408;7.208;2023-09-08T00:27:50;100000.06;;;24.96;54.15
4410;BME280;2218;51.408;7.208;2023-09-08T00:30:17;99996.56;;;24.95;54.30
4410;BME280;2218;51.408;7.208;2023-09-08T00:32:44;100000.22;;;24.94;54.08
4410;BME280;2218;51.408;7.208;2023-09-08T00:35:11;100002.03;;;24.94;54.26
4410;BME280;2218;51.408;7.208;2023-09-08T00:37:40;99997.69;;;24.93;54.01
4410;BME280;2218;51.408;7.208;2023-09-08T00:40:08;99996.72;;;24.94;54.17
4410;BME280;2218;51.408;7.208;2023-09-08T00:42:36;99995.88;;;24.93;54.33
4410;BME280;2218;51.408;7.208;2023-09-08T00:45:04;99990.56;;;24.93;54.34
4410;BME280;2218;51.408;7.208;2023-09-08T00:47:33;99990.56;;;24.93;54.37
4410;BME280;2218;51.408;7.208;2023-09-08T00:50:02;99993.38;;;24.92;54.27
4410;BME280;2218;51.408;7.208;2023-09-08T00:52:29;99992.53;;;24.91;54.40
4410;BME280;2218;51.408;7.208;2023-09-08T00:54:58;99988.88;;;24.92;54.27
4410;BME280;2218;51.408;7.208;2023-09-08T00:57:25;99995.03;;;24.93;54.31
4410;BME280;2218;51.408;7.208;2023-09-08T00:59:54;99995.19;;;24.91;54.27
4410;BME280;2218;51.408;7.208;2023-09-08T01:02:21;99992.53;;;24.91;54.17
4410;BME280;2218;51.408;7.208;2023-09-08T01:04:49;99997.84;;;24.91;54.23
4410;BME280;2218;51.408;7.208;2023-09-08T01:07:19;99990.81;;;24.90;54.29
4410;BME280;2218;51.408;7.208;2023-09-08T01:09:47;100001.47;;;24.90;54.50
4410;BME280;2218;51.408;7.208;2023-09-08T01:12:15;99990.97;;;24.89;54.13
4410;BME280;2218;51.408;7.208;2023-09-08T01:14:42;99993.47;;;24.90;54.25
4410;BME280;2218;51.408;7.208;2023-09-08T01:17:11;99994.47;;;24.89;54.33
4410;BME280;2218;51.408;7.208;2023-09-08T01:19:38;99988.31;;;24.89;54.36
4410;BME280;2218;51.408;7.208;2023-09-08T01:22:43;99983.00;;;24.89;54.27
4410;BME280;2218;51.408;7.208;2023-09-08T01:25:18;99989.16;;;24.89;54.38
4410;BME280;2218;51.408;7.208;2023-09-08T01:27:52;99986.50;;;24.89;53.88
4410;BME280;2218;51.408;7.208;2023-09-08T01:30:20;99992.78;;;24.88;54.41
4410;BME280;2218;51.408;7.208;2023-09-08T01:32:49;99984.81;;;24.88;54.50
4410;BME280;2218;51.408;7.208;2023-09-08T01:35:17;99990.13;;;24.88;54.41
4410;BME280;2218;51.408;7.208;2023-09-08T01:37:47;99984.97;;;24.87;54.37
4410;BME280;2218;51.408;7.208;2023-09-08T01:40:17;99983.13;;;24.87;54.31
4410;BME280;2218;51.408;7.208;2023-09-08T01:42:45;99984.97;;;24.87;54.38
4410;BME280;2218;51.408;7.208;2023-09-08T01:45:12;99979.66;;;24.87;54.34
4410;BME280;2218;51.408;7.208;2023-09-08T01:47:39;99978.78;;;24.86;54.34
4410;BME280;2218;51.408;7.208;2023-09-08T01:50:07;99977.09;;;24.85;54.42
4410;BME280;2218;51.408;7.208;2023-09-08T01:52:34;99982.41;;;24.85;54.33
4410;BME280;2218;51.408;7.208;2023-09-08T01:55:01;99977.09;;;24.85;54.39
4410;BME280;2218;51.408;7.208;2023-09-08T01:57:29;99977.09;;;24.85;54.39
4410;BME280;2218;51.408;7.208;2023-09-08T01:59:56;99966.47;;;24.85;54.58
4410;BME280;2218;51.408;7.208;2023-09-08T02:02:25;99967.44;;;24.84;54.43
4410;BME280;2218;51.408;7.208;2023-09-08T02:04:52;99963.13;;;24.83;54.46
4410;BME280;2218;51.408;7.208;2023-09-08T02:07:18;99961.28;;;24.84;54.40
4410;BME280;2218;51.408;7.208;2023-09-08T02:09:49;99970.09;;;24.84;54.43
4410;BME280;2218;51.408;7.208;2023-09-08T02:12:16;99967.44;;;24.84;54.52
4410;BME280;2218;51.408;7.208;2023-09-08T02:14:44;99967.59;;;24.83;54.46
4410;BME280;2218;51.408;7.208;2023-09-08T02:17:11;99971.09;;;24.83;54.42
4410;BME280;2218;51.408;7.208;2023-09-08T02:19:38;99972.06;;;24.82;54.84
4410;BME280;2218;51.408;7.208;2023-09-08T02:22:04;99969.41;;;24.82;54.46
4410;BME280;2218;51.408;7.208;2023-09-08T02:24:31;99961.44;;;24.82;54.42
4410;BME280;2218;51.408;7.208;2023-09-08T02:26:58;99961.44;;;24.82;54.34
4410;BME280;2218;51.408;7.208;2023-09-08T02:29:26;99961.44;;;24.82;54.61
4410;BME280;2218;51.408;7.208;2023-09-08T02:31:54;99956.25;;;24.81;54.88
4410;BME280;2218;51.408;7.208;2023-09-08T02:34:22;99956.25;;;24.81;54.54
4410;BME280;2218;51.408;7.208;2023-09-08T02:36:49;99959.72;;;24.81;54.43
4410;BME280;2218;51.408;7.208;2023-09-08T02:39:18;99959.72;;;24.81;54.60
4410;BME280;2218;51.408;7.208;2023-09-08T02:41:45;99965.06;;;24.81;54.53
4410;BME280;2218;51.408;7.208;2023-09-08T02:44:12;99964.34;;;24.79;54.56
4410;BME280;2218;51.408;7.208;2023-09-08T02:46:39;99958.22;;;24.79;54.66
4410;BME280;2218;51.408;7.208;2023-09-08T02:49:07;99960.03;;;24.78;54.71
4410;BME280;2218;51.408;7.208;2023-09-08T02:51:34;99960.03;;;24.78;54.56
4410;BME280;2218;51.408;7.208;2023-09-08T02:54:01;99965.34;;;24.78;54.58
4410;BME280;2218;51.408;7.208;2023-09-08T02:56:28;99970.66;;;24.78;54.66
4410;BME280;2218;51.408;7.208;2023-09-08T02:58:55;99970.66;;;24.78;54.62
4410;BME280;2218;51.408;7.208;2023-09-08T03:01:22;99971.66;;;24.77;54.58
4410;BME280;2218;51.408;7.208;2023-09-08T03:03:49;99977.78;;;24.78;54.61
4410;BME280;2218;51.408;7.208;2023-09-08T03:06:20;99971.66;;;24.77;54.79
4410;BME280;2218;51.408;7.208;2023-09-08T03:08:48;99974.31;;;24.77;54.73
4410;BME280;2218;51.408;7.208;2023-09-08T03:11:15;99976.97;;;24.77;54.73
4410;BME280;2218;51.408;7.208;2023-09-08T03:13:42;99972.59;;;24.76;54.58
4410;BME280;2218;51.408;7.208;2023-09-08T03:16:09;99963.78;;;24.75;54.70
4410;BME280;2218;51.408;7.208;2023-09-08T03:18:37;99971.91;;;24.74;54.74
4410;BME280;2218;51.408;7.208;2023-09-08T03:21:05;99970.09;;;24.74;54.63
4410;BME280;2218;51.408;7.208;2023-09-08T03:23:40;99962.94;;;24.75;54.61
4410;BME280;2218;51.408;7.208;2023-09-08T03:26:07;99959.44;;;24.74;54.63
4410;BME280;2218;51.408;7.208;2023-09-08T03:28:36;99957.78;;;24.73;54.69
4410;BME280;2218;51.408;7.208;2023-09-08T03:31:05;99958.59;;;24.74;54.58
4410;BME280;2218;51.408;7.208;2023-09-08T03:33:34;99956.94;;;24.73;54.41
4410;BME280;2218;51.408;7.208;2023-09-08T03:36:02;99956.94;;;24.73;54.74
4410;BME280;2218;51.408;7.208;2023-09-08T03:38:30;99960.56;;;24.72;54.68
4410;BME280;2218;51.408;7.208;2023-09-08T03:40:58;99957.91;;;24.72;54.73
4410;BME280;2218;51.408;7.208;2023-09-08T03:43:25;99955.25;;;24.72;54.55
4410;BME280;2218;51.408;7.208;2023-09-08T03:45:52;99955.25;;;24.72;54.79
4410;BME280;2218;51.408;7.208;2023-09-08T03:48:19;99960.56;;;24.72;54.80
4410;BME280;2218;51.408;7.208;2023-09-08T03:50:46;99955.25;;;24.72;54.86
4410;BME280;2218;51.408;7.208;2023-09-08T03:53:14;99954.44;;;24.71;54.57
4410;BME280;2218;51.408;7.208;2023-09-08T03:55:41;99952.72;;;24.70;54.79
4410;BME280;2218;51.408;7.208;2023-09-08T03:58:09;99956.34;;;24.69;54.69
4410;BME280;2218;51.408;7.208;2023-09-08T04:00:36;99957.19;;;24.70;54.70
4410;BME280;2218;51.408;7.208;2023-09-08T04:03:04;99963.50;;;24.69;54.78
4410;BME280;2218;51.408;7.208;2023-09-08T04:05:31;99959.00;;;24.69;54.88
4410;BME280;2218;51.408;7.208;2023-09-08T04:07:58;99962.50;;;24.70;54.86
4410;BME280;2218;51.408;7.208;2023-09-08T04:10:25;99963.34;;;24.70;54.42
4410;BME280;2218;51.408;7.208;2023-09-08T04:12:52;99966.84;;;24.71;54.72
4410;BME280;2218;51.408;7.208;2023-09-08T04:15:20;99967.81;;;24.70;54.59
4410;BME280;2218;51.408;7.208;2023-09-08T04:17:48;99962.50;;;24.70;54.69
4410;BME280;2218;51.408;7.208;2023-09-08T04:20:15;99960.84;;;24.69;54.68
4410;BME280;2218;51.408;7.208;2023-09-08T04:22:42;99957.34;;;24.68;54.83
4410;BME280;2218;51.408;7.208;2023-09-08T04:25:10;99959.84;;;24.70;54.75
4410;BME280;2218;51.408;7.208;2023-09-08T04:27:37;99964.34;;;24.69;54.65
4410;BME280;2218;51.408;7.208;2023-09-08T04:30:05;99960.84;;;24.69;54.72
4410;BME280;2218;51.408;7.208;2023-09-08T04:32:34;99964.47;;;24.68;54.66
4410;BME280;2218;51.408;7.208;2023-09-08T04:35:00;99961.81;;;24.68;54.63
4410;BME280;2218;51.408;7.208;2023-09-08T04:37:27;99960.00;;;24.68;54.60
4410;BME280;2218;51.408;7.208;2023-09-08T04:39:56;99959.16;;;24.68;54.49
4410;BME280;2218;51.408;7.208;2023-09-08T04:42:23;99962.81;;;24.67;54.43
4410;BME280;2218;51.408;7.208;2023-09-08T04:44:51;99960.16;;;24.67;54.53
4410;BME280;2218;51.408;7.208;2023-09-08T04:47:18;99953.84;;;24.68;54.63
4410;BME280;2218;51.408;7.208;2023-09-08T04:49:47;99961.09;;;24.66;54.45
4410;BME280;2218;51.408;7.208;2023-09-08T04:52:14;99962.81;;;24.67;54.35
4410;BME280;2218;51.408;7.208;2023-09-08T04:54:42;99965.56;;;24.65;54.50
4410;BME280;2218;51.408;7.208;2023-09-08T04:57:09;99961.09;;;24.66;54.45
4410;BME280;2218;51.408;7.208;2023-09-08T04:59:36;99955.78;;;24.66;54.44
4410;BME280;2218;51.408;7.208;2023-09-08T05:02:05;99961.94;;;24.66;54.36
4410;BME280;2218;51.408;7.208;2023-09-08T05:04:32;99961.09;;;24.66;54.35
4410;BME280;2218;51.408;7.208;2023-09-08T05:07:00;99957.47;;;24.67;54.29
4410;BME280;2218;51.408;7.208;2023-09-08T05:09:28;99965.56;;;24.65;54.48
4410;BME280;2218;51.408;7.208;2023-09-08T05:11:55;99962.06;;;24.65;54.38
4410;BME280;2218;51.408;7.208;2023-09-08T05:14:22;99959.41;;;24.65;54.33
4410;BME280;2218;51.408;7.208;2023-09-08T05:16:50;99961.09;;;24.66;54.35
4410;BME280;2218;51.408;7.208;2023-09-08T05:19:22;99959.41;;;24.65;54.43
4410;BME280;2218;51.408;7.208;2023-09-08T05:21:51;99961.09;;;24.66;54.29
4410;BME280;2218;51.408;7.208;2023-09-08T05:24:19;99963.75;;;24.66;54.02
4410;BME280;2218;51.408;7.208;2023-09-08T05:26:46;99967.38;;;24.65;54.33
4410;BME280;2218;51.408;7.208;2023-09-08T05:29:14;99963.91;;;24.64;54.16
4410;BME280;2218;51.408;7.208;2023-09-08T05:31:42;99955.91;;;24.64;54.19
4410;BME280;2218;51.408;7.208;2023-09-08T05:34:10;99962.06;;;24.65;54.09
4410;BME280;2218;51.408;7.208;2023-09-08T05:36:37;99955.78;;;24.66;54.14
4410;BME280;2218;51.408;7.208;2023-09-08T05:39:07;99962.06;;;24.65;54.22
4410;BME280;2218;51.408;7.208;2023-09-08T05:41:35;99960.41;;;24.64;54.21
4410;BME280;2218;51.408;7.208;2023-09-08T05:44:03;99959.41;;;24.65;54.01
4410;BME280;2218;51.408;7.208;2023-09-08T05:46:31;99960.41;;;24.64;53.46
4410;BME280;2218;51.408;7.208;2023-09-08T05:48:58;99956.06;;;24.63;50.75
4410;BME280;2218;51.408;7.208;2023-09-08T05:51:25;99954.25;;;24.63;50.48
4410;BME280;2218;51.408;7.208;2023-09-08T05:53:54;99962.81;;;24.67;50.04
4410;BME280;2218;51.408;7.208;2023-09-08T05:56:26;99951.88;;;24.70;50.72
4410;BME280;2218;51.408;7.208;2023-09-08T05:58:57;99960.56;;;24.72;50.92
4410;BME280;2218;51.408;7.208;2023-09-08T06:01:24;99962.94;;;24.75;50.03
4410;BME280;2218;51.408;7.208;2023-09-08T06:03:51;99958.34;;;24.77;50.47
4410;BME280;2218;51.408;7.208;2023-09-08T06:06:20;99962.69;;;24.78;50.23
4410;BME280;2218;51.408;7.208;2023-09-08T06:08:47;99957.06;;;24.81;50.45
4410;BME280;2218;51.408;7.208;2023-09-08T06:11:14;99950.81;;;24.82;50.17
4410;BME280;2218;51.408;7.208;2023-09-08T06:13:41;99956.81;;;24.84;50.00
4410;BME280;2218;51.408;7.208;2023-09-08T06:16:10;99955.84;;;24.85;50.07
4410;BME280;2218;51.408;7.208;2023-09-08T06:18:37;99948.59;;;24.87;49.60
4410;BME280;2218;51.408;7.208;2023-09-08T06:21:08;99960.88;;;24.88;49.77
4410;BME280;2218;51.408;7.208;2023-09-08T06:23:36;99955.31;;;24.91;49.54
4410;BME280;2218;51.408;7.208;2023-09-08T06:26:03;99949.69;;;24.94;49.54
4410;BME280;2218;51.408;7.208;2023-09-08T06:28:32;99955.03;;;24.94;49.45
4410;BME280;2218;51.408;7.208;2023-09-08T06:30:59;99958.41;;;24.96;49.29
4410;BME280;2218;51.408;7.208;2023-09-08T06:33:28;99958.41;;;24.96;48.92
4410;BME280;2218;51.408;7.208;2023-09-08T06:35:55;99969.03;;;24.96;49.45
4410;BME280;2218;51.408;7.208;2023-09-08T06:38:22;99962.59;;;24.99;49.02
4410;BME280;2218;51.408;7.208;2023-09-08T06:40:49;99964.25;;;25.00;48.96
4410;BME280;2218;51.408;7.208;2023-09-08T06:43:18;99960.63;;;25.01;48.87
4410;BME280;2218;51.408;7.208;2023-09-08T06:45:55;99963.16;;;25.02;48.88
4410;BME280;2218;51.408;7.208;2023-09-08T06:48:23;99962.88;;;25.06;48.94
4410;BME280;2218;51.408;7.208;2023-09-08T06:50:54;99967.13;;;25.08;49.15
4410;BME280;2218;51.408;7.208;2023-09-08T06:53:22;99963.47;;;25.09;49.18
4410;BME280;2218;51.408;7.208;2023-09-08T06:55:50;99960.66;;;25.11;48.86
4410;BME280;2218;51.408;7.208;2023-09-08T06:58:17;99961.53;;;25.11;48.90
4410;BME280;2218;51.408;7.208;2023-09-08T07:00:44;99956.22;;;25.11;48.79
4410;BME280;2218;51.408;7.208;2023-09-08T07:03:11;99966.56;;;25.14;48.71
4410;BME280;2218;51.408;7.208;2023-09-08T07:05:39;99966.56;;;25.14;48.48
4410;BME280;2218;51.408;7.208;2023-09-08T07:08:08;99966.56;;;25.14;48.69
4410;BME280;2218;51.408;7.208;2023-09-08T07:10:35;99968.13;;;25.17;48.68
4410;BME280;2218;51.408;7.208;2023-09-08T07:13:02;99961.81;;;25.18;48.85
4410;BME280;2218;51.408;7.208;2023-09-08T07:15:29;99971.31;;;25.20;48.30
4410;BME280;2218;51.408;7.208;2023-09-08T07:17:56;99964.91;;;25.23;48.50
4410;BME280;2218;51.408;7.208;2023-09-08T07:20:24;99968.25;;;25.25;48.61
4410;BME280;2218;51.408;7.208;2023-09-08T07:22:51;99966.31;;;25.27;48.85
4410;BME280;2218;51.408;7.208;2023-09-08T07:25:19;99965.31;;;25.28;48.61
4410;BME280;2218;51.408;7.208;2023-09-08T07:27:46;99964.47;;;25.27;48.75
4410;BME280;2218;51.408;7.208;2023-09-08T07:30:14;99966.31;;;25.27;48.62
4410;BME280;2218;51.408;7.208;2023-09-08T07:32:40;99967.97;;;25.28;48.90
4410;BME280;2218;51.408;7.208;2023-09-08T07:35:08;99964.47;;;25.27;49.17
4410;BME280;2218;51.408;7.208;2023-09-08T07:37:40;99963.50;;;25.29;49.16
4410;BME280;2218;51.408;7.208;2023-09-08T07:40:09;99966.16;;;25.29;49.17
4410;BME280;2218;51.408;7.208;2023-09-08T07:42:38;99970.38;;;25.31;49.43
4410;BME280;2218;51.408;7.208;2023-09-08T07:45:06;99969.66;;;25.29;49.41
4410;BME280;2218;51.408;7.208;2023-09-08T07:47:35;99972.16;;;25.31;49.21
4410;BME280;2218;51.408;7.208;2023-09-08T07:50:19;99976.66;;;25.30;49.17
4410;BME280;2218;51.408;7.208;2023-09-08T07:52:46;99969.38;;;25.32;49.19
4410;BME280;2218;51.408;7.208;2023-09-08T07:55:14;99976.22;;;25.35;49.42
4410;BME280;2218;51.408;7.208;2023-09-08T07:57:44;99975.25;;;25.36;49.30
4410;BME280;2218;51.408;7.208;2023-09-08T08:00:13;99969.91;;;25.36;49.48
4410;BME280;2218;51.408;7.208;2023-09-08T08:02:44;99968.97;;;25.37;49.65
4410;BME280;2218;51.408;7.208;2023-09-08T08:05:12;99968.81;;;25.38;49.60
4410;BME280;2218;51.408;7.208;2023-09-08T08:07:41;99977.50;;;25.40;49.67
4410;BME280;2218;51.408;7.208;2023-09-08T08:10:10;99966.84;;;25.40;49.89
4410;BME280;2218;51.408;7.208;2023-09-08T08:12:38;99973.88;;;25.41;50.07
4410;BME280;2218;51.408;7.208;2023-09-08T08:15:08;99963.22;;;25.41;50.18
4410;BME280;2218;51.408;7.208;2023-09-08T08:17:37;99971.91;;;25.43;50.36
4410;BME280;2218;51.408;7.208;2023-09-08T08:20:06;99966.44;;;25.45;50.20
4410;BME280;2218;51.408;7.208;2023-09-08T08:22:36;99964.59;;;25.45;50.55
4410;BME280;2218;51.408;7.208;2023-09-08T08:25:04;99965.44;;;25.46;50.62
4410;BME280;2218;51.408;7.208;2023-09-08T08:27:31;99964.50;;;25.47;50.28
4410;BME280;2218;51.408;7.208;2023-09-08T08:29:58;99965.31;;;25.47;50.82
4410;BME280;2218;51.408;7.208;2023-09-08T08:32:28;99967.00;;;25.48;51.11
4410;BME280;2218;51.408;7.208;2023-09-08T08:34:55;99974.00;;;25.49;50.78
4410;BME280;2218;51.408;7.208;2023-09-08T08:37:23;99967.69;;;25.50;50.59
4410;BME280;2218;51.408;7.208;2023-09-08T08:39:50;99965.03;;;25.50;50.73
4410;BME280;2218;51.408;7.208;2023-09-08T08:42:17;99969.38;;;25.51;51.04
4410;BME280;2218;51.408;7.208;2023-09-08T08:44:48;99971.06;;;25.52;50.95
4410;BME280;2218;51.408;7.208;2023-09-08T08:47:16;99963.91;;;25.53;51.18
4410;BME280;2218;51.408;7.208;2023-09-08T08:49:47;99970.09;;;25.53;51.19
4410;BME280;2218;51.408;7.208;2023-09-08T08:52:16;99971.75;;;25.55;51.33
4410;BME280;2218;51.408;7.208;2023-09-08T08:54:44;99970.75;;;25.56;51.04
4410;BME280;2218;51.408;7.208;2023-09-08T08:57:13;99974.41;;;25.55;51.26
4410;BME280;2218;51.408;7.208;2023-09-08T08:59:41;99976.09;;;25.56;51.38
4410;BME280;2218;51.408;7.208;2023-09-08T09:02:11;99973.31;;;25.57;51.25
4410;BME280;2218;51.408;7.208;2023-09-08T09:04:40;99980.31;;;25.58;51.58
4410;BME280;2218;51.408;7.208;2023-09-08T09:07:09;99970.50;;;25.59;51.30
4410;BME280;2218;51.408;7.208;2023-09-08T09:09:37;99966.84;;;25.60;51.33
4410;BME280;2218;51.408;7.208;2023-09-08T09:12:06;99974.81;;;25.60;51.26
4410;BME280;2218;51.408;7.208;2023-09-08T09:14:34;99965.84;;;25.61;51.55
4410;BME280;2218;51.408;7.208;2023-09-08T09:17:01;99960.53;;;25.61;51.79
4410;BME280;2218;51.408;7.208;2023-09-08T09:19:30;99958.75;;;25.61;51.50
4410;BME280;2218;51.408;7.208;2023-09-08T09:21:59;99966.56;;;25.63;51.47
4410;BME280;2218;51.408;7.208;2023-09-08T09:24:32;99961.25;;;25.63;52.00
4410;BME280;2218;51.408;7.208;2023-09-08T09:27:00;99960.41;;;25.62;51.80
4410;BME280;2218;51.408;7.208;2023-09-08T09:29:28;99966.56;;;25.63;51.69
4410;BME280;2218;51.408;7.208;2023-09-08T09:31:57;99965.59;;;25.64;51.66
4410;BME280;2218;51.408;7.208;2023-09-08T09:34:25;99960.69;;;25.69;51.09
4410;BME280;2218;51.408;7.208;2023-09-08T09:36:52;99958.44;;;25.64;51.10
4410;BME280;2218;51.408;7.208;2023-09-08T09:39:22;99961.25;;;25.63;51.03
4410;BME280;2218;51.408;7.208;2023-09-08T09:41:54;99959.56;;;25.62;50.61
4410;BME280;2218;51.408;7.208;2023-09-08T09:44:23;99956.19;;;25.60;50.50
4410;BME280;2218;51.408;7.208;2023-09-08T09:46:53;99950.88;;;25.60;50.26
4410;BME280;2218;51.408;7.208;2023-09-08T09:49:20;99946.38;;;25.60;50.34
4410;BME280;2218;51.408;7.208;2023-09-08T09:51:50;99943.88;;;25.59;50.00
4410;BME280;2218;51.408;7.208;2023-09-08T09:54:20;99950.03;;;25.59;49.96
4410;BME280;2218;51.408;7.208;2023-09-08T09:56:47;99956.91;;;25.62;49.97
4410;BME280;2218;51.408;7.208;2023-09-08T09:59:15;99950.59;;;25.63;49.60
4410;BME280;2218;51.408;7.208;2023-09-08T10:01:43;99955.94;;;25.63;49.97
4410;BME280;2218;51.408;7.208;2023-09-08T10:04:11;99950.59;;;25.63;49.99
4410;BME280;2218;51.408;7.208;2023-09-08T10:06:41;99954.25;;;25.62;49.58
4410;BME280;2218;51.408;7.208;2023-09-08T10:09:08;99949.88;;;25.61;50.10
4410;BME280;2218;51.408;7.208;2023-09-08T10:11:44;99941.22;;;25.59;49.34
4410;BME280;2218;51.408;7.208;2023-09-08T10:14:15;99957.19;;;25.59;49.54
4410;BME280;2218;51.408;7.208;2023-09-08T10:16:45;99952.28;;;25.64;49.78
4410;BME280;2218;51.408;7.208;2023-09-08T10:19:16;99955.34;;;25.69;48.85
4410;BME280;2218;51.408;7.208;2023-09-08T10:21:46;99953.69;;;25.68;48.99
4410;BME280;2218;51.408;7.208;2023-09-08T10:24:15;99955.63;;;25.66;49.22
4410;BME280;2218;51.408;7.208;2023-09-08T10:27:01;99954.94;;;25.64;48.79
4410;BME280;2218;51.408;7.208;2023-09-08T10:29:32;99955.09;;;25.62;49.18
4410;BME280;2218;51.408;7.208;2023-09-08T10:32:01;99946.38;;;25.70;48.94
4410;BME280;2218;51.408;7.208;2023-09-08T10:34:30;99950.28;;;25.95;47.64
4410;BME280;2218;51.408;7.208;2023-09-08T10:36:58;99953.97;;;25.84;48.69
4410;BME280;2218;51.408;7.208;2023-09-08T10:39:30;99945.00;;;25.75;48.50
4410;BME280;2218;51.408;7.208;2023-09-08T10:42:23;99949.50;;;25.75;48.58
4410;BME280;2218;51.408;7.208;2023-09-08T10:45:14;99951.44;;;25.73;48.94
4410;BME280;2218;51.408;7.208;2023-09-08T10:47:55;99950.59;;;25.72;49.05
4410;BME280;2218;51.408;7.208;2023-09-08T10:50:31;99947.78;;;25.74;49.32
4410;BME280;2218;51.408;7.208;2023-09-08T10:53:12;99951.44;;;25.73;49.02
4410;BME280;2218;51.408;7.208;2023-09-08T10:55:41;99947.78;;;25.74;49.50
4410;BME280;2218;51.408;7.208;2023-09-08T10:58:18;99955.78;;;25.74;49.32
4410;BME280;2218;51.408;7.208;2023-09-08T11:00:52;99948.63;;;25.74;49.17
4410;BME280;2218;51.408;7.208;2023-09-08T11:03:28;99950.72;;;25.90;48.94
4410;BME280;2218;51.408;7.208;2023-09-08T11:06:10;99954.19;;;26.00;48.06
4410;BME280;2218;51.408;7.208;2023-09-08T11:08:40;99955.50;;;25.96;48.08
4410;BME280;2218;51.408;7.208;2023-09-08T11:11:10;99956.19;;;25.98;47.72
4410;BME280;2218;51.408;7.208;2023-09-08T11:13:38;99954.19;;;26.00;48.03
4410;BME280;2218;51.408;7.208;2023-09-08T11:16:07;99955.06;;;26.01;47.42
4410;BME280;2218;51.408;7.208;2023-09-08T11:18:35;99943.25;;;26.13;46.84
4410;BME280;2218;51.408;7.208;2023-09-08T11:21:06;99951.91;;;26.15;46.95
4410;BME280;2218;51.408;7.208;2023-09-08T11:23:34;99958.91;;;26.26;45.67
4410;BME280;2218;51.408;7.208;2023-09-08T11:26:01;99945.72;;;26.24;45.27
4410;BME280;2218;51.408;7.208;2023-09-08T11:28:28;99951.34;;;26.21;45.91
4410;BME280;2218;51.408;7.208;2023-09-08T11:30:55;99944.88;;;26.24;45.48
4410;BME280;2218;51.408;7.208;2023-09-08T11:33:24;99946.31;;;26.18;45.52
4410;BME280;2218;51.408;7.208;2023-09-08T11:35:52;99945.34;;;26.10;45.70
4410;BME280;2218;51.408;7.208;2023-09-08T11:38:24;99953.31;;;26.19;45.84
4410;BME280;2218;51.408;7.208;2023-09-08T11:40:51;99945.59;;;26.26;45.83
4410;BME280;2218;51.408;7.208;2023-09-08T11:43:19;99947.97;;;26.19;45.64
4410;BME280;2218;51.408;7.208;2023-09-08T11:45:46;99944.00;;;26.43;44.78
4410;BME280;2218;51.408;7.208;2023-09-08T11:48:14;99935.72;;;26.46;45.09
4410;BME280;2218;51.408;7.208;2023-09-08T11:50:43;99941.34;;;26.33;45.35
4410;BME280;2218;51.408;7.208;2023-09-08T11:53:10;99935.28;;;26.41;44.84
4410;BME280;2218;51.408;7.208;2023-09-08T11:55:37;99936.16;;;26.32;45.30
4410;BME280;2218;51.408;7.208;2023-09-08T11:58:05;99939.06;;;26.38;45.55
4410;BME280;2218;51.408;7.208;2023-09-08T12:00:32;99938.28;;;26.28;46.00
4410;BME280;2218;51.408;7.208;2023-09-08T12:03:10;99936.88;;;26.24;46.62
4410;BME280;2218;51.408;7.208;2023-09-08T12:05:38;99940.66;;;26.31;46.36
4410;BME280;2218;51.408;7.208;2023-09-08T12:08:08;99939.56;;;26.24;46.23
4410;BME280;2218;51.408;7.208;2023-09-08T12:10:39;99936.47;;;26.19;46.96
4410;BME280;2218;51.408;7.208;2023-09-08T12:13:07;99930.59;;;26.15;47.31
4410;BME280;2218;51.408;7.208;2023-09-08T12:15:36;99932.59;;;26.13;47.47
4410;BME280;2218;51.408;7.208;2023-09-08T12:18:05;99927.25;;;26.13;47.35
4410;BME280;2218;51.408;7.208;2023-09-08T12:20:35;99933.41;;;26.14;47.21
4410;BME280;2218;51.408;7.208;2023-09-08T12:23:04;99929.38;;;26.10;47.74
4410;BME280;2218;51.408;7.208;2023-09-08T12:25:45;99932.88;;;26.10;47.69
4410;BME280;2218;51.408;7.208;2023-09-08T12:28:12;99930.34;;;26.09;47.64
4410;BME280;2218;51.408;7.208;2023-09-08T12:30:39;99935.69;;;26.09;48.43
4410;BME280;2218;51.408;7.208;2023-09-08T12:33:07;99929.66;;;26.07;48.02
4410;BME280;2218;51.408;7.208;2023-09-08T12:35:35;99927.00;;;26.07;48.55
4410;BME280;2218;51.408;7.208;2023-09-08T12:38:04;99921.81;;;26.05;47.64
4410;BME280;2218;51.408;7.208;2023-09-08T12:40:35;99923.63;;;26.04;48.29
4410;BME280;2218;51.408;7.208;2023-09-08T12:43:03;99911.31;;;26.03;47.92
4410;BME280;2218;51.408;7.208;2023-09-08T12:45:31;99918.63;;;26.01;48.11
4410;BME280;2218;51.408;7.208;2023-09-08T12:48:01;99912.56;;;25.99;48.41
4410;BME280;2218;51.408;7.208;2023-09-08T12:50:29;99913.56;;;25.98;48.26
4410;BME280;2218;51.408;7.208;2023-09-08T12:52:56;99916.22;;;25.98;47.71
4410;BME280;2218;51.408;7.208;2023-09-08T12:55:23;99905.56;;;25.98;48.06
4410;BME280;2218;51.408;7.208;2023-09-08T12:57:52;99909.06;;;25.99;47.99
4410;BME280;2218;51.408;7.208;2023-09-08T13:00:21;99908.25;;;25.98;47.76
4410;BME280;2218;51.408;7.208;2023-09-08T13:02:49;99912.72;;;25.98;47.60
4410;BME280;2218;51.408;7.208;2023-09-08T13:05:16;99901.25;;;25.97;47.77
4410;BME280;2218;51.408;7.208;2023-09-08T13:07:43;99905.56;;;25.98;47.69
4410;BME280;2218;51.408;7.208;2023-09-08T13:10:10;99905.72;;;25.97;47.65
4410;BME280;2218;51.408;7.208;2023-09-08T13:12:37;99896.91;;;25.96;47.90
4410;BME280;2218;51.408;7.208;2023-09-08T13:15:07;99908.25;;;25.98;47.67
4410;BME280;2218;51.408;7.208;2023-09-08T13:17:34;99903.06;;;25.97;48.54
4410;BME280;2218;51.408;7.208;2023-09-08T13:20:02;99905.56;;;25.98;48.22
4410;BME280;2218;51.408;7.208;2023-09-08T13:22:29;99896.59;;;25.99;48.26
4410;BME280;2218;51.408;7.208;2023-09-08T13:24:56;99897.44;;;26.00;47.95
4410;BME280;2218;51.408;7.208;2023-09-08T13:27:23;99893.09;;;25.99;48.12
4410;BME280;2218;51.408;7.208;2023-09-08T13:29:50;99894.94;;;25.98;48.43